sensor_id;sensor_type;location;lat;lon;timestamp;P1;durP1;ratioP1;P2;durP2;ratioP2
19842;SDS011;10082;51.038;6.992;2023-02-28T00:00:37;3.53;;;1.90;;
19842;SDS011;10082;51.038;6.992;2023-02-28T00:03:06;2.67;;;1.63;;
19842;SDS011;10082;51.038;6.992;2023-02-28T00:05:33;2.17;;;1.77;;
19842;SDS011;10082;51.038;6.992;2023-02-28T00:08:00;3.53;;;2.00;;
19842;SDS011;10082;51.038;6.992;2023-02-28T00:10:29;2.50;;;1.70;;
19842;SDS011;10082;51.038;6.992;2023-02-28T00:12:59;3.23;;;1.90;;
19842;SDS011;10082;51.038;6.992;2023-02-28T00:15:29;2.37;;;1.97;;
19842;SDS011;10082;51.038;6.992;2023-02-28T00:17:58;2.90;;;2.10;;
19842;SDS011;10082;51.038;6.992;2023-02-28T00:20:26;3.13;;;1.80;;
19842;SDS011;10082;51.038;6.992;2023-02-28T00:22:53;2.60;;;1.60;;
19842;SDS011;10082;51.038;6.992;2023-02-28T00:25:22;3.47;;;1.97;;
19842;SDS011;10082;51.038;6.992;2023-02-28T00:27:50;1.97;;;1.77;;
19842;SDS011;10082;51.038;6.992;2023-02-28T00:30:18;2.10;;;1.80;;
19842;SDS011;10082;51.038;6.992;2023-02-28T00:32:46;2.30;;;2.00;;
19842;SDS011;10082;51.038;6.992;2023-02-28T00:35:16;1.60;;;1.50;;
19842;SDS011;10082;51.038;6.992;2023-02-28T00:37:44;2.20;;;1.93;;
19842;SDS011;10082;51.038;6.992;2023-02-28T00:40:11;2.40;;;2.10;;
19842;SDS011;10082;51.038;6.992;2023-02-28T00:42:39;2.43;;;1.77;;
19842;SDS011;10082;51.038;6.992;2023-02-28T00:45:06;1.97;;;1.73;;
19842;SDS011;10082;51.038;6.992;2023-02-28T00:47:36;3.53;;;1.87;;
19842;SDS011;10082;51.038;6.992;2023-02-28T00:50:05;2.73;;;1.57;;
19842;SDS011;10082;51.038;6.992;2023-02-28T00:52:37;3.67;;;1.93;;
19842;SDS011;10082;51.038;6.992;2023-02-28T00:55:05;3.20;;;2.00;;
19842;SDS011;10082;51.038;6.992;2023-02-28T00:57:32;1.80;;;1.63;;
19842;SDS011;10082;51.038;6.992;2023-02-28T01:00:00;2.27;;;1.80;;
19842;SDS011;10082;51.038;6.992;2023-02-28T01:02:27;3.70;;;2.20;;
19842;SDS011;10082;51.038;6.992;2023-02-28T01:04:54;2.43;;;2.00;;
19842;SDS011;10082;51.038;6.992;2023-02-28T01:07:22;4.47;;;2.30;;
19842;SDS011;10082;51.038;6.992;2023-02-28T01:09:50;2.40;;;2.20;;
19842;SDS011;10082;51.038;6.992;2023-02-28T01:12:17;2.93;;;2.20;;
19842;SDS011;10082;51.038;6.992;2023-02-28T01:14:46;2.90;;;2.00;;
19842;SDS011;10082;51.038;6.992;2023-02-28T01:17:16;2.40;;;1.67;;
19842;SDS011;10082;51.038;6.992;2023-02-28T01:19:43;3.10;;;2.20;;
19842;SDS011;10082;51.038;6.992;2023-02-28T01:22:10;3.03;;;1.87;;
19842;SDS011;10082;51.038;6.992;2023-02-28T01:24:40;2.57;;;1.80;;
19842;SDS011;10082;51.038;6.992;2023-02-28T01:27:13;2.13;;;1.80;;
19842;SDS011;10082;51.038;6.992;2023-02-28T01:29:40;2.60;;;1.90;;
19842;SDS011;10082;51.038;6.992;2023-02-28T01:32:08;1.60;;;1.50;;
19842;SDS011;10082;51.038;6.992;2023-02-28T01:34:35;1.90;;;1.77;;
19842;SDS011;10082;51.038;6.992;2023-02-28T01:37:03;2.23;;;1.63;;
19842;SDS011;10082;51.038;6.992;2023-02-28T01:39:33;1.90;;;1.60;;
19842;SDS011;10082;51.038;6.992;2023-02-28T01:42:02;1.83;;;1.63;;
19842;SDS011;10082;51.038;6.992;2023-02-28T01:47:27;4.90;;;1.80;;
19842;SDS011;10082;51.038;6.992;2023-02-28T01:49:59;2.03;;;1.70;;
19842;SDS011;10082;51.038;6.992;2023-02-28T01:52:29;1.97;;;1.60;;
19842;SDS011;10082;51.038;6.992;2023-02-28T01:54:58;1.63;;;1.50;;
19842;SDS011;10082;51.038;6.992;2023-02-28T01:57:29;2.80;;;1.90;;
19842;SDS011;10082;51.038;6.992;2023-02-28T02:00:07;2.07;;;1.80;;
19842;SDS011;10082;51.038;6.992;2023-02-28T02:02:38;2.17;;;1.70;;
19842;SDS011;10082;51.038;6.992;2023-02-28T02:05:09;1.73;;;1.57;;
19842;SDS011;10082;51.038;6.992;2023-02-28T02:07:39;2.07;;;1.87;;
19842;SDS011;10082;51.038;6.992;2023-02-28T02:10:11;2.77;;;1.93;;
19842;SDS011;10082;51.038;6.992;2023-02-28T02:12:49;1.97;;;1.80;;
19842;SDS011;10082;51.038;6.992;2023-02-28T02:15:31;2.10;;;1.90;;
19842;SDS011;10082;51.038;6.992;2023-02-28T02:18:03;2.20;;;1.90;;
19842;SDS011;10082;51.038;6.992;2023-02-28T02:20:43;2.27;;;1.77;;
19842;SDS011;10082;51.038;6.992;2023-02-28T02:23:48;2.80;;;2.00;;
19842;SDS011;10082;51.038;6.992;2023-02-28T02:26:48;2.50;;;1.80;;
19842;SDS011;10082;51.038;6.992;2023-02-28T02:35:40;2.20;;;1.93;;
19842;SDS011;10082;51.038;6.992;2023-02-28T02:38:15;2.03;;;1.80;;
19842;SDS011;10082;51.038;6.992;2023-02-28T02:40:53;1.60;;;1.50;;
19842;SDS011;10082;51.038;6.992;2023-02-28T02:43:25;2.43;;;2.07;;
19842;SDS011;10082;51.038;6.992;2023-02-28T02:45:59;2.40;;;1.80;;
19842;SDS011;10082;51.038;6.992;2023-02-28T02:48:33;2.97;;;2.03;;
19842;SDS011;10082;51.038;6.992;2023-02-28T02:51:06;4.50;;;2.50;;
19842;SDS011;10082;51.038;6.992;2023-02-28T02:53:40;2.70;;;2.10;;
19842;SDS011;10082;51.038;6.992;2023-02-28T02:56:14;2.70;;;2.07;;
19842;SDS011;10082;51.038;6.992;2023-02-28T02:58:45;3.57;;;3.27;;
19842;SDS011;10082;51.038;6.992;2023-02-28T03:01:16;3.30;;;2.57;;
19842;SDS011;10082;51.038;6.992;2023-02-28T03:03:54;2.73;;;2.53;;
19842;SDS011;10082;51.038;6.992;2023-02-28T03:06:25;2.50;;;2.30;;
19842;SDS011;10082;51.038;6.992;2023-02-28T03:08:53;4.07;;;3.10;;
19842;SDS011;10082;51.038;6.992;2023-02-28T03:11:21;3.20;;;2.87;;
19842;SDS011;10082;51.038;6.992;2023-02-28T03:16:49;2.80;;;2.57;;
19842;SDS011;10082;51.038;6.992;2023-02-28T03:19:30;3.67;;;2.60;;
19842;SDS011;10082;51.038;6.992;2023-02-28T03:22:25;3.00;;;2.80;;
19842;SDS011;10082;51.038;6.992;2023-02-28T03:25:07;2.40;;;2.20;;
19842;SDS011;10082;51.038;6.992;2023-02-28T03:27:39;2.90;;;2.40;;
19842;SDS011;10082;51.038;6.992;2023-02-28T03:30:14;3.53;;;2.90;;
19842;SDS011;10082;51.038;6.992;2023-02-28T03:32:51;3.17;;;2.50;;
19842;SDS011;10082;51.038;6.992;2023-02-28T03:35:24;2.97;;;2.70;;
19842;SDS011;10082;51.038;6.992;2023-02-28T03:37:58;3.30;;;2.73;;
19842;SDS011;10082;51.038;6.992;2023-02-28T03:40:32;3.10;;;2.83;;
19842;SDS011;10082;51.038;6.992;2023-02-28T03:43:02;3.33;;;3.03;;
19842;SDS011;10082;51.038;6.992;2023-02-28T03:45:35;4.17;;;3.10;;
19842;SDS011;10082;51.038;6.992;2023-02-28T03:48:05;3.80;;;3.27;;
19842;SDS011;10082;51.038;6.992;2023-02-28T03:50:39;3.53;;;3.00;;
19842;SDS011;10082;51.038;6.992;2023-02-28T03:53:11;3.33;;;3.03;;
19842;SDS011;10082;51.038;6.992;2023-02-28T03:55:42;3.30;;;3.00;;
19842;SDS011;10082;51.038;6.992;2023-02-28T03:58:12;3.43;;;3.13;;
19842;SDS011;10082;51.038;6.992;2023-02-28T04:00:48;3.80;;;3.20;;
19842;SDS011;10082;51.038;6.992;2023-02-28T04:03:21;8.20;;;3.07;;
19842;SDS011;10082;51.038;6.992;2023-02-28T04:05:50;3.57;;;2.87;;
19842;SDS011;10082;51.038;6.992;2023-02-28T04:08:21;3.50;;;2.80;;
19842;SDS011;10082;51.038;6.992;2023-02-28T04:10:50;2.77;;;2.57;;
19842;SDS011;10082;51.038;6.992;2023-02-28T04:13:23;2.60;;;2.40;;
19842;SDS011;10082;51.038;6.992;2023-02-28T04:15:50;3.20;;;2.90;;
19842;SDS011;10082;51.038;6.992;2023-02-28T04:18:17;3.60;;;2.70;;
19842;SDS011;10082;51.038;6.992;2023-02-28T04:20:46;2.70;;;2.50;;
19842;SDS011;10082;51.038;6.992;2023-02-28T04:23:13;2.77;;;2.57;;
19842;SDS011;10082;51.038;6.992;2023-02-28T04:25:42;2.50;;;2.10;;
19842;SDS011;10082;51.038;6.992;2023-02-28T04:28:09;5.67;;;2.00;;
19842;SDS011;10082;51.038;6.992;2023-02-28T04:30:37;2.23;;;2.03;;
19842;SDS011;10082;51.038;6.992;2023-02-28T04:33:05;3.83;;;2.30;;
19842;SDS011;10082;51.038;6.992;2023-02-28T04:35:33;2.37;;;2.00;;
19842;SDS011;10082;51.038;6.992;2023-02-28T04:38:00;2.30;;;2.00;;
19842;SDS011;10082;51.038;6.992;2023-02-28T04:40:27;2.10;;;1.90;;
19842;SDS011;10082;51.038;6.992;2023-02-28T04:42:56;4.47;;;2.20;;
19842;SDS011;10082;51.038;6.992;2023-02-28T04:45:23;2.50;;;2.20;;
19842;SDS011;10082;51.038;6.992;2023-02-28T04:47:51;2.77;;;2.23;;
19842;SDS011;10082;51.038;6.992;2023-02-28T04:50:18;2.10;;;1.90;;
19842;SDS011;10082;51.038;6.992;2023-02-28T04:52:45;1.97;;;1.80;;
19842;SDS011;10082;51.038;6.992;2023-02-28T04:55:13;1.93;;;1.83;;
19842;SDS011;10082;51.038;6.992;2023-02-28T04:57:40;2.40;;;1.90;;
19842;SDS011;10082;51.038;6.992;2023-02-28T05:00:10;3.30;;;1.60;;
19842;SDS011;10082;51.038;6.992;2023-02-28T05:02:41;2.63;;;2.10;;
19842;SDS011;10082;51.038;6.992;2023-02-28T05:05:09;2.70;;;1.70;;
19842;SDS011;10082;51.038;6.992;2023-02-28T05:07:37;1.80;;;1.70;;
19842;SDS011;10082;51.038;6.992;2023-02-28T05:10:04;3.73;;;1.93;;
19842;SDS011;10082;51.038;6.992;2023-02-28T05:12:32;2.50;;;2.00;;
19842;SDS011;10082;51.038;6.992;2023-02-28T05:14:59;2.30;;;1.80;;
19842;SDS011;10082;51.038;6.992;2023-02-28T05:17:29;2.13;;;1.80;;
19842;SDS011;10082;51.038;6.992;2023-02-28T05:19:56;3.03;;;1.97;;
19842;SDS011;10082;51.038;6.992;2023-02-28T05:22:24;3.30;;;1.90;;
19842;SDS011;10082;51.038;6.992;2023-02-28T05:24:51;2.83;;;2.00;;
19842;SDS011;10082;51.038;6.992;2023-02-28T05:27:18;2.83;;;1.90;;
19842;SDS011;10082;51.038;6.992;2023-02-28T05:29:45;2.20;;;2.00;;
19842;SDS011;10082;51.038;6.992;2023-02-28T05:32:12;2.17;;;1.90;;
19842;SDS011;10082;51.038;6.992;2023-02-28T05:34:41;2.53;;;1.90;;
19842;SDS011;10082;51.038;6.992;2023-02-28T05:37:11;2.77;;;1.87;;
19842;SDS011;10082;51.038;6.992;2023-02-28T05:39:39;1.83;;;1.63;;
19842;SDS011;10082;51.038;6.992;2023-02-28T05:42:06;2.13;;;1.90;;
19842;SDS011;10082;51.038;6.992;2023-02-28T05:44:35;2.07;;;1.90;;
19842;SDS011;10082;51.038;6.992;2023-02-28T05:47:03;2.67;;;1.80;;
19842;SDS011;10082;51.038;6.992;2023-02-28T05:49:30;2.37;;;1.63;;
19842;SDS011;10082;51.038;6.992;2023-02-28T05:51:59;2.37;;;1.70;;
19842;SDS011;10082;51.038;6.992;2023-02-28T05:54:26;1.73;;;1.60;;
19842;SDS011;10082;51.038;6.992;2023-02-28T05:56:53;2.20;;;1.67;;
19842;SDS011;10082;51.038;6.992;2023-02-28T05:59:20;1.93;;;1.70;;
19842;SDS011;10082;51.038;6.992;2023-02-28T06:01:47;1.70;;;1.60;;
19842;SDS011;10082;51.038;6.992;2023-02-28T06:04:16;2.03;;;1.70;;
19842;SDS011;10082;51.038;6.992;2023-02-28T06:06:44;1.97;;;1.80;;
19842;SDS011;10082;51.038;6.992;2023-02-28T06:09:13;3.07;;;1.70;;
19842;SDS011;10082;51.038;6.992;2023-02-28T06:11:42;2.87;;;1.80;;
19842;SDS011;10082;51.038;6.992;2023-02-28T06:14:12;2.43;;;1.73;;
19842;SDS011;10082;51.038;6.992;2023-02-28T06:16:41;1.87;;;1.70;;
19842;SDS011;10082;51.038;6.992;2023-02-28T06:19:09;2.17;;;1.97;;
19842;SDS011;10082;51.038;6.992;2023-02-28T06:21:38;2.30;;;2.10;;
19842;SDS011;10082;51.038;6.992;2023-02-28T06:24:06;2.40;;;2.10;;
19842;SDS011;10082;51.038;6.992;2023-02-28T06:26:35;3.57;;;2.20;;
19842;SDS011;10082;51.038;6.992;2023-02-28T06:29:02;2.87;;;2.20;;
19842;SDS011;10082;51.038;6.992;2023-02-28T06:31:30;3.43;;;2.10;;
19842;SDS011;10082;51.038;6.992;2023-02-28T06:33:57;2.47;;;2.27;;
19842;SDS011;10082;51.038;6.992;2023-02-28T06:36:24;2.53;;;2.20;;
19842;SDS011;10082;51.038;6.992;2023-02-28T06:38:51;3.57;;;2.13;;
19842;SDS011;10082;51.038;6.992;2023-02-28T06:41:21;3.73;;;2.03;;
19842;SDS011;10082;51.038;6.992;2023-02-28T06:43:51;3.73;;;2.63;;
19842;SDS011;10082;51.038;6.992;2023-02-28T06:46:18;3.10;;;2.17;;
19842;SDS011;10082;51.038;6.992;2023-02-28T06:48:46;2.47;;;2.27;;
19842;SDS011;10082;51.038;6.992;2023-02-28T06:51:14;2.37;;;2.17;;
19842;SDS011;10082;51.038;6.992;2023-02-28T06:53:42;2.40;;;2.20;;
19842;SDS011;10082;51.038;6.992;2023-02-28T06:56:10;1.97;;;1.87;;
19842;SDS011;10082;51.038;6.992;2023-02-28T06:58:39;2.30;;;2.10;;
19842;SDS011;10082;51.038;6.992;2023-02-28T07:01:08;2.20;;;2.00;;
19842;SDS011;10082;51.038;6.992;2023-02-28T07:03:35;3.53;;;2.20;;
19842;SDS011;10082;51.038;6.992;2023-02-28T07:06:04;2.97;;;1.93;;
19842;SDS011;10082;51.038;6.992;2023-02-28T07:08:31;3.43;;;2.30;;
19842;SDS011;10082;51.038;6.992;2023-02-28T07:10:59;5.53;;;2.17;;
19842;SDS011;10082;51.038;6.992;2023-02-28T07:13:26;3.10;;;2.30;;
19842;SDS011;10082;51.038;6.992;2023-02-28T07:15:54;2.90;;;2.07;;
19842;SDS011;10082;51.038;6.992;2023-02-28T07:18:23;4.33;;;2.00;;
19842;SDS011;10082;51.038;6.992;2023-02-28T07:20:50;3.23;;;2.20;;
19842;SDS011;10082;51.038;6.992;2023-02-28T07:23:17;3.53;;;2.20;;
19842;SDS011;10082;51.038;6.992;2023-02-28T07:25:45;4.60;;;2.20;;
19842;SDS011;10082;51.038;6.992;2023-02-28T07:28:12;2.13;;;1.93;;
19842;SDS011;10082;51.038;6.992;2023-02-28T07:30:40;2.90;;;1.90;;
19842;SDS011;10082;51.038;6.992;2023-02-28T07:33:08;2.80;;;1.90;;
19842;SDS011;10082;51.038;6.992;2023-02-28T07:35:38;2.93;;;2.00;;
19842;SDS011;10082;51.038;6.992;2023-02-28T07:38:05;2.13;;;1.93;;
19842;SDS011;10082;51.038;6.992;2023-02-28T07:40:32;3.40;;;1.80;;
19842;SDS011;10082;51.038;6.992;2023-02-28T07:43:00;2.30;;;1.67;;
19842;SDS011;10082;51.038;6.992;2023-02-28T07:45:27;2.47;;;1.80;;
19842;SDS011;10082;51.038;6.992;2023-02-28T07:47:56;2.13;;;1.70;;
19842;SDS011;10082;51.038;6.992;2023-02-28T07:50:30;3.27;;;2.00;;
19842;SDS011;10082;51.038;6.992;2023-02-28T07:52:59;2.00;;;1.60;;
19842;SDS011;10082;51.038;6.992;2023-02-28T07:55:26;2.23;;;1.80;;
19842;SDS011;10082;51.038;6.992;2023-02-28T07:57:53;1.70;;;1.60;;
19842;SDS011;10082;51.038;6.992;2023-02-28T08:00:21;3.03;;;1.47;;
19842;SDS011;10082;51.038;6.992;2023-02-28T08:02:49;1.70;;;1.60;;
19842;SDS011;10082;51.038;6.992;2023-02-28T08:05:16;1.75;;;1.50;;
19842;SDS011;10082;51.038;6.992;2023-02-28T08:07:43;1.70;;;1.60;;
19842;SDS011;10082;51.038;6.992;2023-02-28T08:10:12;2.00;;;1.80;;
19842;SDS011;10082;51.038;6.992;2023-02-28T08:12:39;1.87;;;1.47;;
19842;SDS011;10082;51.038;6.992;2023-02-28T08:15:07;1.87;;;1.40;;
19842;SDS011;10082;51.038;6.992;2023-02-28T08:17:35;1.60;;;1.50;;
19842;SDS011;10082;51.038;6.992;2023-02-28T08:20:02;1.67;;;1.33;;
19842;SDS011;10082;51.038;6.992;2023-02-28T08:22:30;1.30;;;1.20;;
19842;SDS011;10082;51.038;6.992;2023-02-28T08:24:57;1.33;;;1.23;;
19842;SDS011;10082;51.038;6.992;2023-02-28T08:27:26;1.67;;;1.30;;
19842;SDS011;10082;51.038;6.992;2023-02-28T08:29:53;1.80;;;1.30;;
19842;SDS011;10082;51.038;6.992;2023-02-28T08:32:21;1.60;;;1.50;;
19842;SDS011;10082;51.038;6.992;2023-02-28T08:34:49;1.30;;;1.20;;
19842;SDS011;10082;51.038;6.992;2023-02-28T08:37:16;2.97;;;1.10;;
19842;SDS011;10082;51.038;6.992;2023-02-28T08:39:44;1.27;;;1.17;;
19842;SDS011;10082;51.038;6.992;2023-02-28T08:42:11;1.33;;;1.20;;
19842;SDS011;10082;51.038;6.992;2023-02-28T08:44:40;1.53;;;1.30;;
19842;SDS011;10082;51.038;6.992;2023-02-28T08:47:07;1.53;;;1.43;;
19842;SDS011;10082;51.038;6.992;2023-02-28T08:49:34;1.70;;;1.40;;
19842;SDS011;10082;51.038;6.992;2023-02-28T08:52:02;1.93;;;1.30;;
19842;SDS011;10082;51.038;6.992;2023-02-28T08:54:29;1.37;;;1.07;;
19842;SDS011;10082;51.038;6.992;2023-02-28T08:56:59;1.40;;;1.25;;
19842;SDS011;10082;51.038;6.992;2023-02-28T08:59:26;1.40;;;1.30;;
19842;SDS011;10082;51.038;6.992;2023-02-28T09:01:56;1.40;;;1.30;;
19842;SDS011;10082;51.038;6.992;2023-02-28T09:04:23;1.40;;;1.20;;
19842;SDS011;10082;51.038;6.992;2023-02-28T09:06:50;1.33;;;1.10;;
19842;SDS011;10082;51.038;6.992;2023-02-28T09:09:18;1.50;;;1.40;;
19842;SDS011;10082;51.038;6.992;2023-02-28T09:11:45;1.45;;;1.35;;
19842;SDS011;10082;51.038;6.992;2023-02-28T09:14:12;1.38;;;1.27;;
19842;SDS011;10082;51.038;6.992;2023-02-28T09:16:39;1.40;;;1.30;;
19842;SDS011;10082;51.038;6.992;2023-02-28T09:19:12;3.00;;;1.50;;
19842;SDS011;10082;51.038;6.992;2023-02-28T09:21:40;1.27;;;1.17;;
19842;SDS011;10082;51.038;6.992;2023-02-28T09:24:07;1.52;;;1.40;;
19842;SDS011;10082;51.038;6.992;2023-02-28T09:26:36;1.40;;;1.30;;
19842;SDS011;10082;51.038;6.992;2023-02-28T09:29:04;1.57;;;1.47;;
19842;SDS011;10082;51.038;6.992;2023-02-28T09:31:31;1.55;;;1.40;;
19842;SDS011;10082;51.038;6.992;2023-02-28T09:33:59;1.60;;;1.35;;
19842;SDS011;10082;51.038;6.992;2023-02-28T09:36:28;1.50;;;1.40;;
19842;SDS011;10082;51.038;6.992;2023-02-28T09:38:55;1.40;;;1.30;;
19842;SDS011;10082;51.038;6.992;2023-02-28T09:44:47;3.30;;;1.77;;
19842;SDS011;10082;51.038;6.992;2023-02-28T09:47:18;1.63;;;1.45;;
19842;SDS011;10082;51.038;6.992;2023-02-28T09:49:52;1.60;;;1.50;;
19842;SDS011;10082;51.038;6.992;2023-02-28T09:52:24;1.52;;;1.42;;
19842;SDS011;10082;51.038;6.992;2023-02-28T09:54:58;1.67;;;1.58;;
19842;SDS011;10082;51.038;6.992;2023-02-28T09:57:31;1.60;;;1.50;;
19842;SDS011;10082;51.038;6.992;2023-02-28T10:00:06;1.65;;;1.50;;
19842;SDS011;10082;51.038;6.992;2023-02-28T10:02:50;1.83;;;1.70;;
19842;SDS011;10082;51.038;6.992;2023-02-28T10:05:26;1.60;;;1.50;;
19842;SDS011;10082;51.038;6.992;2023-02-28T10:08:00;1.65;;;1.55;;
19842;SDS011;10082;51.038;6.992;2023-02-28T10:10:35;1.77;;;1.30;;
19842;SDS011;10082;51.038;6.992;2023-02-28T10:13:06;1.67;;;1.33;;
19842;SDS011;10082;51.038;6.992;2023-02-28T10:15:43;1.40;;;1.30;;
19842;SDS011;10082;51.038;6.992;2023-02-28T10:18:14;1.33;;;1.10;;
19842;SDS011;10082;51.038;6.992;2023-02-28T10:20:47;1.70;;;1.05;;
19842;SDS011;10082;51.038;6.992;2023-02-28T10:23:19;1.30;;;1.20;;
19842;SDS011;10082;51.038;6.992;2023-02-28T10:25:50;1.70;;;1.10;;
19842;SDS011;10082;51.038;6.992;2023-02-28T10:28:21;2.33;;;1.30;;
19842;SDS011;10082;51.038;6.992;2023-02-28T10:30:49;1.30;;;1.20;;
19842;SDS011;10082;51.038;6.992;2023-02-28T10:33:19;1.23;;;1.17;;
19842;SDS011;10082;51.038;6.992;2023-02-28T10:35:49;2.10;;;1.27;;
19842;SDS011;10082;51.038;6.992;2023-02-28T10:38:19;1.38;;;1.27;;
19842;SDS011;10082;51.038;6.992;2023-02-28T10:40:49;1.50;;;1.40;;
19842;SDS011;10082;51.038;6.992;2023-02-28T10:43:21;1.23;;;1.13;;
19842;SDS011;10082;51.038;6.992;2023-02-28T10:45:55;1.40;;;1.30;;
19842;SDS011;10082;51.038;6.992;2023-02-28T10:48:36;2.23;;;1.60;;
19842;SDS011;10082;51.038;6.992;2023-02-28T10:51:05;1.40;;;1.30;;
19842;SDS011;10082;51.038;6.992;2023-02-28T10:53:37;1.50;;;1.37;;
19842;SDS011;10082;51.038;6.992;2023-02-28T10:56:15;1.60;;;1.50;;
19842;SDS011;10082;51.038;6.992;2023-02-28T10:58:51;2.67;;;1.60;;
19842;SDS011;10082;51.038;6.992;2023-02-28T11:01:21;1.40;;;1.30;;
19842;SDS011;10082;51.038;6.992;2023-02-28T11:03:51;2.27;;;1.30;;
19842;SDS011;10082;51.038;6.992;2023-02-28T11:06:19;1.50;;;1.40;;
19842;SDS011;10082;51.038;6.992;2023-02-28T11:08:50;1.30;;;1.20;;
19842;SDS011;10082;51.038;6.992;2023-02-28T11:11:19;2.00;;;1.60;;
19842;SDS011;10082;51.038;6.992;2023-02-28T11:13:50;1.40;;;1.30;;
19842;SDS011;10082;51.038;6.992;2023-02-28T11:16:19;2.30;;;1.50;;
19842;SDS011;10082;51.038;6.992;2023-02-28T11:18:48;2.27;;;1.70;;
19842;SDS011;10082;51.038;6.992;2023-02-28T11:21:22;1.50;;;1.40;;
19842;SDS011;10082;51.038;6.992;2023-02-28T11:23:54;1.63;;;1.53;;
19842;SDS011;10082;51.038;6.992;2023-02-28T11:26:35;1.50;;;1.30;;
19842;SDS011;10082;51.038;6.992;2023-02-28T11:29:18;1.67;;;1.23;;
19842;SDS011;10082;51.038;6.992;2023-02-28T11:32:00;2.53;;;2.00;;
19842;SDS011;10082;51.038;6.992;2023-02-28T11:34:34;3.33;;;1.50;;
19842;SDS011;10082;51.038;6.992;2023-02-28T11:37:02;1.73;;;1.63;;
19842;SDS011;10082;51.038;6.992;2023-02-28T11:42:26;2.97;;;1.70;;
19842;SDS011;10082;51.038;6.992;2023-02-28T11:45:18;1.70;;;1.60;;
19842;SDS011;10082;51.038;6.992;2023-02-28T11:47:59;1.90;;;1.80;;
19842;SDS011;10082;51.038;6.992;2023-02-28T11:50:38;2.10;;;1.90;;
19842;SDS011;10082;51.038;6.992;2023-02-28T11:53:15;1.63;;;1.53;;
19842;SDS011;10082;51.038;6.992;2023-02-28T11:55:51;2.10;;;1.93;;
19842;SDS011;10082;51.038;6.992;2023-02-28T11:58:30;1.90;;;1.80;;
19842;SDS011;10082;51.038;6.992;2023-02-28T12:01:09;1.90;;;1.80;;
19842;SDS011;10082;51.038;6.992;2023-02-28T12:03:45;3.50;;;1.80;;
19842;SDS011;10082;51.038;6.992;2023-02-28T12:06:24;2.40;;;1.80;;
19842;SDS011;10082;51.038;6.992;2023-02-28T12:09:02;2.43;;;1.90;;
19842;SDS011;10082;51.038;6.992;2023-02-28T12:11:44;2.10;;;1.90;;
19842;SDS011;10082;51.038;6.992;2023-02-28T12:14:23;1.87;;;1.63;;
19842;SDS011;10082;51.038;6.992;2023-02-28T12:17:09;2.50;;;2.30;;
19842;SDS011;10082;51.038;6.992;2023-02-28T12:19:48;1.60;;;1.50;;
19842;SDS011;10082;51.038;6.992;2023-02-28T12:22:29;2.17;;;1.90;;
19842;SDS011;10082;51.038;6.992;2023-02-28T12:27:56;1.70;;;1.60;;
19842;SDS011;10082;51.038;6.992;2023-02-28T12:30:24;1.93;;;1.67;;
19842;SDS011;10082;51.038;6.992;2023-02-28T12:32:56;2.30;;;2.10;;
19842;SDS011;10082;51.038;6.992;2023-02-28T12:35:32;2.07;;;1.87;;
19842;SDS011;10082;51.038;6.992;2023-02-28T12:38:02;2.10;;;1.70;;
19842;SDS011;10082;51.038;6.992;2023-02-28T12:40:34;2.50;;;1.90;;
19842;SDS011;10082;51.038;6.992;2023-02-28T12:43:12;2.20;;;2.00;;
19842;SDS011;10082;51.038;6.992;2023-02-28T12:45:42;1.90;;;1.70;;
19842;SDS011;10082;51.038;6.992;2023-02-28T12:48:14;2.10;;;1.90;;
19842;SDS011;10082;51.038;6.992;2023-02-28T12:50:53;2.10;;;1.90;;
19842;SDS011;10082;51.038;6.992;2023-02-28T12:53:23;2.53;;;1.90;;
19842;SDS011;10082;51.038;6.992;2023-02-28T12:55:57;2.10;;;2.00;;
19842;SDS011;10082;51.038;6.992;2023-02-28T12:58:37;2.00;;;1.80;;
19842;SDS011;10082;51.038;6.992;2023-02-28T13:01:18;4.10;;;2.30;;
19842;SDS011;10082;51.038;6.992;2023-02-28T13:07:17;2.43;;;2.20;;
19842;SDS011;10082;51.038;6.992;2023-02-28T13:10:03;1.80;;;1.70;;
19842;SDS011;10082;51.038;6.992;2023-02-28T13:12:32;2.20;;;2.00;;
19842;SDS011;10082;51.038;6.992;2023-02-28T13:15:04;1.97;;;1.77;;
19842;SDS011;10082;51.038;6.992;2023-02-28T13:17:38;2.13;;;1.80;;
19842;SDS011;10082;51.038;6.992;2023-02-28T13:20:14;2.30;;;2.10;;
19842;SDS011;10082;51.038;6.992;2023-02-28T13:22:44;1.97;;;1.77;;
19842;SDS011;10082;51.038;6.992;2023-02-28T13:31:21;1.80;;;1.70;;
19842;SDS011;10082;51.038;6.992;2023-02-28T13:34:04;1.83;;;1.73;;
19842;SDS011;10082;51.038;6.992;2023-02-28T13:36:38;2.17;;;1.80;;
19842;SDS011;10082;51.038;6.992;2023-02-28T13:45:21;1.90;;;1.70;;
19842;SDS011;10082;51.038;6.992;2023-02-28T13:47:55;3.17;;;1.90;;
19842;SDS011;10082;51.038;6.992;2023-02-28T13:50:31;1.90;;;1.77;;
19842;SDS011;10082;51.038;6.992;2023-02-28T13:53:21;1.97;;;1.87;;
19842;SDS011;10082;51.038;6.992;2023-02-28T13:56:20;3.60;;;2.00;;
19842;SDS011;10082;51.038;6.992;2023-02-28T13:58:55;2.40;;;2.20;;
19842;SDS011;10082;51.038;6.992;2023-02-28T14:01:31;2.27;;;2.07;;
19842;SDS011;10082;51.038;6.992;2023-02-28T14:04:21;2.13;;;1.93;;
19842;SDS011;10082;51.038;6.992;2023-02-28T14:07:16;2.40;;;2.20;;
19842;SDS011;10082;51.038;6.992;2023-02-28T14:09:47;2.30;;;2.10;;
19842;SDS011;10082;51.038;6.992;2023-02-28T14:15:39;2.70;;;2.33;;
19842;SDS011;10082;51.038;6.992;2023-02-28T14:18:17;2.10;;;2.00;;
19842;SDS011;10082;51.038;6.992;2023-02-28T14:20:52;2.43;;;2.23;;
19842;SDS011;10082;51.038;6.992;2023-02-28T14:23:32;2.33;;;2.13;;
19842;SDS011;10082;51.038;6.992;2023-02-28T14:26:19;2.60;;;2.40;;
19842;SDS011;10082;51.038;6.992;2023-02-28T14:29:08;3.23;;;2.50;;
19842;SDS011;10082;51.038;6.992;2023-02-28T14:31:45;2.40;;;2.20;;
19842;SDS011;10082;51.038;6.992;2023-02-28T14:34:26;2.47;;;2.27;;
19842;SDS011;10082;51.038;6.992;2023-02-28T14:37:10;2.33;;;2.13;;
19842;SDS011;10082;51.038;6.992;2023-02-28T14:39:42;2.87;;;2.67;;
19842;SDS011;10082;51.038;6.992;2023-02-28T14:42:30;2.42;;;2.22;;
19842;SDS011;10082;51.038;6.992;2023-02-28T14:44:59;2.70;;;2.50;;
19842;SDS011;10082;51.038;6.992;2023-02-28T14:47:27;2.60;;;2.00;;
19842;SDS011;10082;51.038;6.992;2023-02-28T14:49:59;2.30;;;2.10;;
19842;SDS011;10082;51.038;6.992;2023-02-28T14:52:31;2.28;;;2.10;;
19842;SDS011;10082;51.038;6.992;2023-02-28T14:55:00;2.63;;;2.20;;
19842;SDS011;10082;51.038;6.992;2023-02-28T14:57:30;2.70;;;2.47;;
19842;SDS011;10082;51.038;6.992;2023-02-28T14:59:59;2.20;;;2.10;;
19842;SDS011;10082;51.038;6.992;2023-02-28T15:02:30;2.40;;;2.20;;
19842;SDS011;10082;51.038;6.992;2023-02-28T15:05:01;2.10;;;2.00;;
19842;SDS011;10082;51.038;6.992;2023-02-28T15:07:46;1.85;;;1.73;;
19842;SDS011;10082;51.038;6.992;2023-02-28T15:10:18;2.35;;;2.10;;
19842;SDS011;10082;51.038;6.992;2023-02-28T15:12:51;2.22;;;2.03;;
19842;SDS011;10082;51.038;6.992;2023-02-28T15:15:21;1.97;;;1.87;;
19842;SDS011;10082;51.038;6.992;2023-02-28T15:17:52;2.08;;;1.88;;
19842;SDS011;10082;51.038;6.992;2023-02-28T15:20:22;1.70;;;1.60;;
19842;SDS011;10082;51.038;6.992;2023-02-28T15:22:52;2.00;;;1.80;;
19842;SDS011;10082;51.038;6.992;2023-02-28T15:25:22;1.87;;;1.70;;
19842;SDS011;10082;51.038;6.992;2023-02-28T15:27:51;2.47;;;1.90;;
19842;SDS011;10082;51.038;6.992;2023-02-28T15:30:21;2.08;;;1.98;;
19842;SDS011;10082;51.038;6.992;2023-02-28T15:33:03;3.63;;;2.13;;
19842;SDS011;10082;51.038;6.992;2023-02-28T15:35:44;2.15;;;1.95;;
19842;SDS011;10082;51.038;6.992;2023-02-28T15:38:15;2.40;;;2.20;;
19842;SDS011;10082;51.038;6.992;2023-02-28T15:40:45;2.25;;;2.05;;
19842;SDS011;10082;51.038;6.992;2023-02-28T15:43:23;2.55;;;2.30;;
19842;SDS011;10082;51.038;6.992;2023-02-28T15:45:52;2.85;;;2.28;;
19842;SDS011;10082;51.038;6.992;2023-02-28T15:48:24;2.40;;;2.05;;
19842;SDS011;10082;51.038;6.992;2023-02-28T15:50:55;2.33;;;2.05;;
19842;SDS011;10082;51.038;6.992;2023-02-28T15:53:26;2.50;;;2.30;;